sensor_id;sensor_type;location;lat;lon;timestamp;pressure;altitude;pressure_sealevel;temperature;humidity
6020;BME280;3038;51.122;6.840;2023-04-04T06:33:18;102580.13;;;1.96;64.29
6020;BME280;3038;51.122;6.840;2023-04-04T06:35:43;102584.78;;;1.88;64.77
6020;BME280;3038;51.122;6.840;2023-04-04T06:38:08;102582.22;;;1.87;64.55
6020;BME280;3038;51.122;6.840;2023-04-04T06:40:34;102579.53;;;1.88;63.93
6020;BME280;3038;51.122;6.840;2023-04-04T06:43:00;102576.31;;;1.82;63.51
6020;BME280;3038;51.122;6.840;2023-04-04T06:45:26;102587.38;;;1.90;64.09
6020;BME280;3038;51.122;6.840;2023-04-04T06:50:31;102576.72;;;1.94;62.50
6020;BME280;3038;51.122;6.840;2023-04-04T06:52:59;102579.84;;;2.04;63.40
6020;BME280;3038;51.122;6.840;2023-04-04T06:55:28;102575.31;;;2.08;62.40
6020;BME280;3038;51.122;6.840;2023-04-04T06:58:01;102591.53;;;2.17;62.85
6020;BME280;3038;51.122;6.840;2023-04-04T07:00:27;102588.72;;;2.22;62.31
6020;BME280;3038;51.122;6.840;2023-04-04T07:02:59;102599.84;;;2.28;62.42
6020;BME280;3038;51.122;6.840;2023-04-04T07:05:25;102595.94;;;2.39;61.92
6020;BME280;3038;51.122;6.840;2023-04-04T07:07:51;102600.81;;;2.48;61.63
6020;BME280;3038;51.122;6.840;2023-04-04T07:10:22;102597.75;;;2.58;62.20
6020;BME280;3038;51.122;6.840;2023-04-04T07:12:47;102599.19;;;2.66;60.36
6020;BME280;3038;51.122;6.840;2023-04-04T07:15:13;102601.53;;;2.73;60.33
6020;BME280;3038;51.122;6.840;2023-04-04T07:17:39;102595.84;;;2.84;59.75
6020;BME280;3038;51.122;6.840;2023-04-04T07:20:08;102604.44;;;2.88;59.58
6020;BME280;3038;51.122;6.840;2023-04-04T07:22:37;102596.00;;;3.01;58.68
6020;BME280;3038;51.122;6.840;2023-04-04T07:25:06;102600.47;;;3.20;56.92
6020;BME280;3038;51.122;6.840;2023-04-04T07:27:35;102598.53;;;3.23;57.70
6020;BME280;3038;51.122;6.840;2023-04-04T07:30:01;102598.28;;;3.29;56.65
6020;BME280;3038;51.122;6.840;2023-04-04T07:32:27;102602.41;;;3.35;56.26
6020;BME280;3038;51.122;6.840;2023-04-04T07:34:54;102595.72;;;3.48;55.87
6020;BME280;3038;51.122;6.840;2023-04-04T07:37:20;102592.94;;;3.51;56.52
6020;BME280;3038;51.122;6.840;2023-04-04T07:39:46;102588.50;;;3.53;56.49
6020;BME280;3038;51.122;6.840;2023-04-04T07:42:14;102587.78;;;3.69;54.87
6020;BME280;3038;51.122;6.840;2023-04-04T07:44:39;102589.94;;;3.79;55.14
6020;BME280;3038;51.122;6.840;2023-04-04T07:47:05;102585.41;;;3.83;54.18
6020;BME280;3038;51.122;6.840;2023-04-04T07:49:30;102585.66;;;3.96;53.37
6020;BME280;3038;51.122;6.840;2023-04-04T07:51:58;102591.22;;;4.08;55.10
6020;BME280;3038;51.122;6.840;2023-04-04T07:54:23;102591.94;;;4.12;53.60
6020;BME280;3038;51.122;6.840;2023-04-04T07:56:50;102588.34;;;4.32;50.88
6020;BME280;3038;51.122;6.840;2023-04-04T07:59:15;102590.16;;;4.49;51.17
6020;BME280;3038;51.122;6.840;2023-04-04T08:01:43;102586.72;;;4.66;49.78
6020;BME280;3038;51.122;6.840;2023-04-04T08:04:08;102574.81;;;4.76;50.03
6020;BME280;3038;51.122;6.840;2023-04-04T08:06:36;102579.75;;;4.82;51.50
6020;BME280;3038;51.122;6.840;2023-04-04T08:09:03;102578.22;;;4.95;50.27
6020;BME280;3038;51.122;6.840;2023-04-04T08:11:29;102571.78;;;5.01;49.93
6020;BME280;3038;51.122;6.840;2023-04-04T08:13:54;102570.78;;;5.03;49.85
6020;BME280;3038;51.122;6.840;2023-04-04T08:16:19;102567.94;;;5.08;50.04
6020;BME280;3038;51.122;6.840;2023-04-04T08:18:45;102560.09;;;5.06;50.21
6020;BME280;3038;51.122;6.840;2023-04-04T08:21:11;102565.44;;;5.22;49.25
6020;BME280;3038;51.122;6.840;2023-04-04T08:23:36;102569.66;;;5.25;49.42
6020;BME280;3038;51.122;6.840;2023-04-04T08:26:01;102563.41;;;5.27;50.52
6020;BME280;3038;51.122;6.840;2023-04-04T08:28:29;102563.59;;;5.40;48.62
6020;BME280;3038;51.122;6.840;2023-04-04T08:30:54;102566.53;;;5.51;47.05
6020;BME280;3038;51.122;6.840;2023-04-04T08:33:21;102565.97;;;5.62;47.78
6020;BME280;3038;51.122;6.840;2023-04-04T08:35:48;102564.50;;;5.56;49.50
6020;BME280;3038;51.122;6.840;2023-04-04T08:38:48;102569.09;;;5.68;46.05
6020;BME280;3038;51.122;6.840;2023-04-04T08:41:13;102564.88;;;5.82;47.75
6020;BME280;3038;51.122;6.840;2023-04-04T08:43:43;102566.22;;;5.89;49.08
6020;BME280;3038;51.122;6.840;2023-04-04T08:46:11;102565.38;;;5.73;47.85
6020;BME280;3038;51.122;6.840;2023-04-04T08:48:38;102566.72;;;5.80;47.22
6020;BME280;3038;51.122;6.840;2023-04-04T08:51:06;102559.06;;;5.75;47.29
6020;BME280;3038;51.122;6.840;2023-04-04T08:53:34;102572.00;;;5.80;46.85
6020;BME280;3038;51.122;6.840;2023-04-04T08:56:08;102567.63;;;5.96;47.86
6020;BME280;3038;51.122;6.840;2023-04-04T08:58:37;102569.16;;;6.16;47.76
6020;BME280;3038;51.122;6.840;2023-04-04T09:01:05;102568.63;;;6.41;45.61
6020;BME280;3038;51.122;6.840;2023-04-04T09:03:32;102573.53;;;6.63;43.46
6020;BME280;3038;51.122;6.840;2023-04-04T09:06:01;102566.00;;;6.71;43.62
6020;BME280;3038;51.122;6.840;2023-04-04T09:08:27;102564.25;;;6.86;43.37
6020;BME280;3038;51.122;6.840;2023-04-04T09:10:52;102566.75;;;7.03;44.43
6020;BME280;3038;51.122;6.840;2023-04-04T09:13:18;102568.66;;;7.15;44.00
6020;BME280;3038;51.122;6.840;2023-04-04T09:15:49;102566.63;;;7.20;43.42
6020;BME280;3038;51.122;6.840;2023-04-04T09:18:15;102566.41;;;7.24;44.83
6020;BME280;3038;51.122;6.840;2023-04-04T09:20:42;102565.75;;;7.48;42.20
6020;BME280;3038;51.122;6.840;2023-04-04T09:23:16;102556.59;;;7.68;41.28
6020;BME280;3038;51.122;6.840;2023-04-04T09:25:50;102558.88;;;7.75;42.24
6020;BME280;3038;51.122;6.840;2023-04-04T09:28:16;102553.03;;;7.55;42.05
6020;BME280;3038;51.122;6.840;2023-04-04T09:30:42;102543.41;;;7.40;42.62
6020;BME280;3038;51.122;6.840;2023-04-04T09:33:10;102550.00;;;7.47;43.29
6020;BME280;3038;51.122;6.840;2023-04-04T09:35:37;102552.75;;;7.74;44.09
6020;BME280;3038;51.122;6.840;2023-04-04T09:38:07;102543.06;;;7.87;43.15
6020;BME280;3038;51.122;6.840;2023-04-04T09:40:36;102544.25;;;8.10;40.95
6020;BME280;3038;51.122;6.840;2023-04-04T09:43:06;102540.13;;;8.33;41.22
6020;BME280;3038;51.122;6.840;2023-04-04T09:45:38;102545.81;;;8.54;42.75
6020;BME280;3038;51.122;6.840;2023-04-04T09:48:05;102538.81;;;8.80;42.47
6020;BME280;3038;51.122;6.840;2023-04-04T09:50:31;102538.78;;;8.93;41.13
6020;BME280;3038;51.122;6.840;2023-04-04T09:52:59;102542.81;;;8.98;39.77
6020;BME280;3038;51.122;6.840;2023-04-04T09:55:36;102533.94;;;8.87;38.68
6020;BME280;3038;51.122;6.840;2023-04-04T09:58:13;102524.19;;;9.00;38.84
6020;BME280;3038;51.122;6.840;2023-04-04T10:00:46;102527.91;;;9.10;40.32
6020;BME280;3038;51.122;6.840;2023-04-04T10:03:16;102521.22;;;9.30;38.20
6020;BME280;3038;51.122;6.840;2023-04-04T10:05:46;102539.00;;;9.53;41.27
6020;BME280;3038;51.122;6.840;2023-04-04T10:08:21;102531.19;;;9.39;38.86
6020;BME280;3038;51.122;6.840;2023-04-04T10:10:47;102526.28;;;9.46;38.73
6020;BME280;3038;51.122;6.840;2023-04-04T10:13:17;102523.31;;;9.38;38.83
6020;BME280;3038;51.122;6.840;2023-04-04T10:15:46;102519.72;;;9.39;39.09
6020;BME280;3038;51.122;6.840;2023-04-04T10:18:12;102509.91;;;9.77;38.84
6020;BME280;3038;51.122;6.840;2023-04-04T10:20:38;102529.34;;;10.02;39.19
6020;BME280;3038;51.122;6.840;2023-04-04T10:23:05;102521.13;;;10.05;38.71
6020;BME280;3038;51.122;6.840;2023-04-04T10:25:30;102514.81;;;10.19;36.55
6020;BME280;3038;51.122;6.840;2023-04-04T10:27:56;102509.19;;;10.47;36.93
6020;BME280;3038;51.122;6.840;2023-04-04T10:30:21;102502.13;;;10.59;37.12
6020;BME280;3038;51.122;6.840;2023-04-04T10:33:01;102502.91;;;10.84;36.65
6020;BME280;3038;51.122;6.840;2023-04-04T10:35:30;102505.13;;;11.23;37.07
6020;BME280;3038;51.122;6.840;2023-04-04T10:37:57;102498.34;;;11.53;35.95
6020;BME280;3038;51.122;6.840;2023-04-04T10:40:25;102498.19;;;11.88;33.33
6020;BME280;3038;51.122;6.840;2023-04-04T10:42:52;102489.91;;;15.23;28.98
6020;BME280;3038;51.122;6.840;2023-04-04T10:45:19;102476.31;;;17.21;28.05
6020;BME280;3038;51.122;6.840;2023-04-04T10:47:45;102487.38;;;18.11;26.90
6020;BME280;3038;51.122;6.840;2023-04-04T10:50:11;102481.50;;;18.32;26.32
6020;BME280;3038;51.122;6.840;2023-04-04T10:52:42;102473.28;;;18.82;23.53
6020;BME280;3038;51.122;6.840;2023-04-04T10:55:12;102468.66;;;19.55;26.01
6020;BME280;3038;51.122;6.840;2023-04-04T10:57:43;102461.84;;;19.67;22.46
6020;BME280;3038;51.122;6.840;2023-04-04T11:00:13;102456.72;;;19.80;23.17
6020;BME280;3038;51.122;6.840;2023-04-04T11:02:53;102451.91;;;19.67;20.77
6020;BME280;3038;51.122;6.840;2023-04-04T11:05:30;102452.44;;;18.76;21.57
6020;BME280;3038;51.122;6.840;2023-04-04T11:08:03;102443.91;;;19.12;21.05
6020;BME280;3038;51.122;6.840;2023-04-04T11:10:32;102452.41;;;18.60;22.11
6020;BME280;3038;51.122;6.840;2023-04-04T11:13:02;102442.19;;;18.47;22.27
6020;BME280;3038;51.122;6.840;2023-04-04T11:21:17;102442.06;;;20.43;21.77
6020;BME280;3038;51.122;6.840;2023-04-04T11:26:15;102431.94;;;21.85;20.24
6020;BME280;3038;51.122;6.840;2023-04-04T11:33:53;102429.66;;;22.25;18.63
6020;BME280;3038;51.122;6.840;2023-04-04T11:44:17;102418.50;;;19.99;21.13
6020;BME280;3038;51.122;6.840;2023-04-04T11:46:44;102420.34;;;20.60;20.58
6020;BME280;3038;51.122;6.840;2023-04-04T11:49:12;102421.78;;;21.87;20.58
6020;BME280;3038;51.122;6.840;2023-04-04T11:51:38;102418.53;;;21.98;19.86
6020;BME280;3038;51.122;6.840;2023-04-04T11:54:05;102413.34;;;22.46;19.78
6020;BME280;3038;51.122;6.840;2023-04-04T11:56:42;102405.44;;;22.45;19.96
6020;BME280;3038;51.122;6.840;2023-04-04T11:59:18;102404.16;;;21.55;19.39
6020;BME280;3038;51.122;6.840;2023-04-04T12:01:46;102401.31;;;21.27;20.30
6020;BME280;3038;51.122;6.840;2023-04-04T12:04:16;102398.50;;;21.50;19.04
6020;BME280;3038;51.122;6.840;2023-04-04T12:06:42;102390.88;;;21.96;19.48
6020;BME280;3038;51.122;6.840;2023-04-04T12:09:09;102392.59;;;21.61;20.59
6020;BME280;3038;51.122;6.840;2023-04-04T12:11:36;102388.66;;;22.28;20.16
6020;BME280;3038;51.122;6.840;2023-04-04T12:14:02;102385.66;;;22.79;20.29
6020;BME280;3038;51.122;6.840;2023-04-04T12:16:28;102375.75;;;22.93;20.96
6020;BME280;3038;51.122;6.840;2023-04-04T12:19:00;102373.72;;;23.69;18.56
6020;BME280;3038;51.122;6.840;2023-04-04T12:21:26;102372.69;;;23.77;18.95
6020;BME280;3038;51.122;6.840;2023-04-04T12:23:51;102372.94;;;23.21;19.08
6020;BME280;3038;51.122;6.840;2023-04-04T12:26:17;102368.09;;;23.09;19.97
6020;BME280;3038;51.122;6.840;2023-04-04T12:28:44;102376.41;;;22.32;18.69
6020;BME280;3038;51.122;6.840;2023-04-04T12:31:10;102368.38;;;21.17;19.84
6020;BME280;3038;51.122;6.840;2023-04-04T12:33:38;102371.66;;;22.34;19.40
6020;BME280;3038;51.122;6.840;2023-04-04T12:36:04;102378.75;;;22.76;18.75
6020;BME280;3038;51.122;6.840;2023-04-04T12:38:33;102359.22;;;22.46;18.37
6020;BME280;3038;51.122;6.840;2023-04-04T12:40:59;102366.84;;;21.87;19.76
6020;BME280;3038;51.122;6.840;2023-04-04T12:43:28;102355.59;;;20.89;20.96
6020;BME280;3038;51.122;6.840;2023-04-04T12:45:56;102349.97;;;21.05;20.11
6020;BME280;3038;51.122;6.840;2023-04-04T12:48:28;102341.75;;;19.41;20.74
6020;BME280;3038;51.122;6.840;2023-04-04T12:50:58;102336.47;;;18.94;21.06
6020;BME280;3038;51.122;6.840;2023-04-04T12:53:27;102335.72;;;18.77;21.27
6020;BME280;3038;51.122;6.840;2023-04-04T12:55:54;102325.63;;;19.10;21.59
6020;BME280;3038;51.122;6.840;2023-04-04T12:58:22;102331.13;;;19.17;22.40
6020;BME280;3038;51.122;6.840;2023-04-04T13:00:53;102330.94;;;18.87;23.02
6020;BME280;3038;51.122;6.840;2023-04-04T13:03:21;102321.75;;;18.73;22.08
6020;BME280;3038;51.122;6.840;2023-04-04T13:05:47;102316.91;;;18.69;23.39
6020;BME280;3038;51.122;6.840;2023-04-04T13:08:14;102317.56;;;18.63;22.42
6020;BME280;3038;51.122;6.840;2023-04-04T13:11:02;102311.88;;;19.05;20.80
6020;BME280;3038;51.122;6.840;2023-04-04T13:13:39;102314.34;;;17.87;22.96
6020;BME280;3038;51.122;6.840;2023-04-04T13:16:09;102309.09;;;17.37;23.48
6020;BME280;3038;51.122;6.840;2023-04-04T13:18:40;102313.31;;;18.21;22.50
6020;BME280;3038;51.122;6.840;2023-04-04T13:21:10;102302.72;;;18.83;20.41
6020;BME280;3038;51.122;6.840;2023-04-04T13:23:37;102301.47;;;19.25;20.89
6020;BME280;3038;51.122;6.840;2023-04-04T13:26:07;102303.25;;;19.56;20.10
6020;BME280;3038;51.122;6.840;2023-04-04T13:28:33;102303.97;;;19.95;19.50
6020;BME280;3038;51.122;6.840;2023-04-04T13:31:06;102300.31;;;20.56;18.29
6020;BME280;3038;51.122;6.840;2023-04-04T13:33:35;102283.91;;;20.13;20.45
6020;BME280;3038;51.122;6.840;2023-04-04T13:36:00;102285.50;;;18.92;20.81
6020;BME280;3038;51.122;6.840;2023-04-04T13:38:27;102279.22;;;18.69;21.25
6020;BME280;3038;51.122;6.840;2023-04-04T13:40:56;102282.91;;;18.76;21.68
6020;BME280;3038;51.122;6.840;2023-04-04T13:43:22;102282.03;;;19.15;21.10
6020;BME280;3038;51.122;6.840;2023-04-04T13:45:47;102286.84;;;19.19;20.88
6020;BME280;3038;51.122;6.840;2023-04-04T13:48:13;102279.28;;;18.53;20.57
6020;BME280;3038;51.122;6.840;2023-04-04T13:50:40;102273.94;;;18.84;20.05
6020;BME280;3038;51.122;6.840;2023-04-04T13:53:07;102273.41;;;18.88;19.67
6020;BME280;3038;51.122;6.840;2023-04-04T13:55:34;102261.34;;;19.76;20.10
6020;BME280;3038;51.122;6.840;2023-04-04T13:58:00;102260.03;;;19.72;19.56
6020;BME280;3038;51.122;6.840;2023-04-04T14:00:25;102255.22;;;19.82;19.29
6020;BME280;3038;51.122;6.840;2023-04-04T14:02:51;102251.06;;;19.57;20.03
6020;BME280;3038;51.122;6.840;2023-04-04T14:05:17;102250.09;;;19.04;19.87
6020;BME280;3038;51.122;6.840;2023-04-04T14:07:44;102250.69;;;18.52;21.12
6020;BME280;3038;51.122;6.840;2023-04-04T14:10:10;102241.28;;;18.00;21.36
6020;BME280;3038;51.122;6.840;2023-04-04T14:12:36;102247.06;;;16.73;22.39
6020;BME280;3038;51.122;6.840;2023-04-04T14:15:03;102245.94;;;16.84;22.05
6020;BME280;3038;51.122;6.840;2023-04-04T14:17:28;102248.78;;;16.90;23.01
6020;BME280;3038;51.122;6.840;2023-04-04T14:19:54;102243.47;;;17.72;23.01
6020;BME280;3038;51.122;6.840;2023-04-04T14:22:19;102229.66;;;18.16;22.34
6020;BME280;3038;51.122;6.840;2023-04-04T14:24:44;102224.59;;;18.21;22.08
6020;BME280;3038;51.122;6.840;2023-04-04T14:27:10;102234.34;;;16.75;22.92
6020;BME280;3038;51.122;6.840;2023-04-04T14:29:36;102226.13;;;15.38;25.18
6020;BME280;3038;51.122;6.840;2023-04-04T14:32:01;102234.72;;;14.79;25.06
6020;BME280;3038;51.122;6.840;2023-04-04T14:34:27;102232.50;;;14.09;25.00
6020;BME280;3038;51.122;6.840;2023-04-04T14:36:53;102229.22;;;13.78;26.07
6020;BME280;3038;51.122;6.840;2023-04-04T14:39:18;102232.50;;;13.33;27.43
6020;BME280;3038;51.122;6.840;2023-04-04T14:41:44;102228.69;;;13.17;27.76
6020;BME280;3038;51.122;6.840;2023-04-04T14:44:09;102219.00;;;13.16;28.51
6020;BME280;3038;51.122;6.840;2023-04-04T14:46:34;102223.59;;;13.13;29.11
6020;BME280;3038;51.122;6.840;2023-04-04T14:49:00;102221.25;;;13.10;27.80
6020;BME280;3038;51.122;6.840;2023-04-04T14:51:27;102214.91;;;13.11;28.98
6020;BME280;3038;51.122;6.840;2023-04-04T14:53:52;102208.19;;;13.17;29.24
6020;BME280;3038;51.122;6.840;2023-04-04T14:56:17;102214.22;;;13.19;28.65
6020;BME280;3038;51.122;6.840;2023-04-04T14:58:43;102206.63;;;13.15;29.89
6020;BME280;3038;51.122;6.840;2023-04-04T15:01:08;102207.41;;;12.76;29.38
6020;BME280;3038;51.122;6.840;2023-04-04T15:03:33;102206.56;;;12.66;29.75
6020;BME280;3038;51.122;6.840;2023-04-04T15:05:59;102200.63;;;12.43;29.79
6020;BME280;3038;51.122;6.840;2023-04-04T15:08:24;102205.13;;;12.43;30.23
6020;BME280;3038;51.122;6.840;2023-04-04T15:10:50;102202.09;;;12.76;30.37
6020;BME280;3038;51.122;6.840;2023-04-04T15:13:16;102193.13;;;12.77;28.88
6020;BME280;3038;51.122;6.840;2023-04-04T15:15:43;102194.22;;;12.55;28.97
6020;BME280;3038;51.122;6.840;2023-04-04T15:18:09;102198.94;;;12.42;29.34
6020;BME280;3038;51.122;6.840;2023-04-04T15:20:34;102192.72;;;12.32;30.24
6020;BME280;3038;51.122;6.840;2023-04-04T15:23:04;102195.50;;;12.21;29.07
6020;BME280;3038;51.122;6.840;2023-04-04T15:25:30;102201.84;;;12.29;28.96
6020;BME280;3038;51.122;6.840;2023-04-04T15:27:55;102192.09;;;12.09;29.60
6020;BME280;3038;51.122;6.840;2023-04-04T15:30:23;102193.25;;;12.16;30.78
6020;BME280;3038;51.122;6.840;2023-04-04T15:32:49;102185.03;;;11.98;29.89
6020;BME280;3038;51.122;6.840;2023-04-04T15:35:17;102175.09;;;11.79;30.16
6020;BME280;3038;51.122;6.840;2023-04-04T15:37:43;102182.56;;;11.65;30.55
6020;BME280;3038;51.122;6.840;2023-04-04T15:40:08;102172.97;;;11.73;30.65
6020;BME280;3038;51.122;6.840;2023-04-04T15:42:34;102175.06;;;11.49;30.45
6020;BME280;3038;51.122;6.840;2023-04-04T15:45:00;102175.66;;;11.31;29.96
6020;BME280;3038;51.122;6.840;2023-04-04T15:47:25;102170.84;;;11.25;30.06
6020;BME280;3038;51.122;6.840;2023-04-04T15:49:51;102183.22;;;11.15;31.16
6020;BME280;3038;51.122;6.840;2023-04-04T15:52:16;102179.13;;;11.11;32.57
6020;BME280;3038;51.122;6.840;2023-04-04T15:54:41;102177.19;;;11.13;32.17
6020;BME280;3038;51.122;6.840;2023-04-04T15:57:07;102176.50;;;11.00;33.00
6020;BME280;3038;51.122;6.840;2023-04-04T15:59:32;102171.25;;;10.77;33.05
6020;BME280;3038;51.122;6.840;2023-04-04T16:01:58;102172.88;;;10.69;32.95
6020;BME280;3038;51.122;6.840;2023-04-04T16:04:23;102170.59;;;10.64;32.90
6020;BME280;3038;51.122;6.840;2023-04-04T16:06:49;102172.31;;;10.54;34.16
6020;BME280;3038;51.122;6.840;2023-04-04T16:09:14;102175.59;;;10.35;34.58
6020;BME280;3038;51.122;6.840;2023-04-04T16:11:39;102174.38;;;10.28;33.84
6020;BME280;3038;51.122;6.840;2023-04-04T16:14:05;102177.78;;;10.30;33.97
6020;BME280;3038;51.122;6.840;2023-04-04T16:16:33;102170.75;;;10.18;34.43
6020;BME280;3038;51.122;6.840;2023-04-04T16:18:58;102166.78;;;10.12;35.16
6020;BME280;3038;51.122;6.840;2023-04-04T16:21:24;102171.34;;;10.10;35.77
6020;BME280;3038;51.122;6.840;2023-04-04T16:23:50;102167.00;;;9.98;35.73
6020;BME280;3038;51.122;6.840;2023-04-04T16:26:15;102170.03;;;9.93;34.98
6020;BME280;3038;51.122;6.840;2023-04-04T16:28:41;102163.63;;;9.73;35.18
6020;BME280;3038;51.122;6.840;2023-04-04T16:31:06;102164.09;;;9.67;35.38
6020;BME280;3038;51.122;6.840;2023-04-04T16:33:32;102159.72;;;9.55;35.41
6020;BME280;3038;51.122;6.840;2023-04-04T16:35:57;102170.19;;;9.45;36.18
6020;BME280;3038;51.122;6.840;2023-04-04T16:38:23;102167.25;;;9.37;35.35
6020;BME280;3038;51.122;6.840;2023-04-04T16:40:48;102159.91;;;9.30;35.63
6020;BME280;3038;51.122;6.840;2023-04-04T16:43:13;102149.38;;;9.17;35.43
6020;BME280;3038;51.122;6.840;2023-04-04T16:45:39;102145.13;;;9.03;36.54
6020;BME280;3038;51.122;6.840;2023-04-04T16:48:05;102155.47;;;8.95;36.34
6020;BME280;3038;51.122;6.840;2023-04-04T16:50:31;102153.03;;;8.92;36.04
6020;BME280;3038;51.122;6.840;2023-04-04T16:52:58;102156.13;;;8.86;36.94
6020;BME280;3038;51.122;6.840;2023-04-04T16:55:23;102157.44;;;8.80;37.22
6020;BME280;3038;51.122;6.840;2023-04-04T16:57:52;102151.50;;;8.77;38.25
6020;BME280;3038;51.122;6.840;2023-04-04T17:00:18;102149.09;;;8.73;38.38
6020;BME280;3038;51.122;6.840;2023-04-04T17:02:43;102153.03;;;8.68;37.59
6020;BME280;3038;51.122;6.840;2023-04-04T17:05:13;102150.25;;;8.69;38.41
6020;BME280;3038;51.122;6.840;2023-04-04T17:07:39;102152.91;;;8.69;38.08
6020;BME280;3038;51.122;6.840;2023-04-04T17:10:06;102145.44;;;8.63;38.27
6020;BME280;3038;51.122;6.840;2023-04-04T17:12:32;102142.47;;;8.55;37.74
6020;BME280;3038;51.122;6.840;2023-04-04T17:14:57;102144.84;;;8.47;39.25
6020;BME280;3038;51.122;6.840;2023-04-04T17:17:22;102146.53;;;8.48;39.19
6020;BME280;3038;51.122;6.840;2023-04-04T17:19:48;102147.38;;;8.48;39.80
6020;BME280;3038;51.122;6.840;2023-04-04T17:22:13;102144.22;;;8.43;39.49
6020;BME280;3038;51.122;6.840;2023-04-04T17:24:40;102139.91;;;8.42;39.97
6020;BME280;3038;51.122;6.840;2023-04-04T17:27:08;102145.28;;;8.41;40.54
6020;BME280;3038;51.122;6.840;2023-04-04T17:29:33;102139.56;;;8.34;40.58
6020;BME280;3038;51.122;6.840;2023-04-04T17:31:58;102138.00;;;8.32;40.42
6020;BME280;3038;51.122;6.840;2023-04-04T17:34:24;102145.19;;;8.30;40.78
6020;BME280;3038;51.122;6.840;2023-04-04T17:36:51;102134.72;;;8.28;40.41
6020;BME280;3038;51.122;6.840;2023-04-04T17:39:16;102133.44;;;8.21;41.43
6020;BME280;3038;51.122;6.840;2023-04-04T17:41:43;102140.16;;;8.14;42.44
6020;BME280;3038;51.122;6.840;2023-04-04T17:44:10;102128.41;;;8.05;41.84
6020;BME280;3038;51.122;6.840;2023-04-04T17:46:36;102129.19;;;7.94;42.51
6020;BME280;3038;51.122;6.840;2023-04-04T17:49:02;102129.81;;;7.85;42.35
6020;BME280;3038;51.122;6.840;2023-04-04T17:51:27;102129.31;;;7.80;42.56
6020;BME280;3038;51.122;6.840;2023-04-04T17:53:52;102126.97;;;7.76;42.26
6020;BME280;3038;51.122;6.840;2023-04-04T17:56:18;102132.69;;;7.69;42.33
6020;BME280;3038;51.122;6.840;2023-04-04T18:01:13;102130.34;;;7.52;43.34
6020;BME280;3038;51.122;6.840;2023-04-04T18:03:38;102128.03;;;7.47;43.33
6020;BME280;3038;51.122;6.840;2023-04-04T18:06:04;102130.03;;;7.44;43.54
6020;BME280;3038;51.122;6.840;2023-04-04T18:08:30;102126.53;;;7.43;42.89
6020;BME280;3038;51.122;6.840;2023-04-04T18:10:56;102127.63;;;7.41;43.22
6020;BME280;3038;51.122;6.840;2023-04-04T18:13:21;102135.00;;;7.36;43.67
6020;BME280;3038;51.122;6.840;2023-04-04T18:15:47;102129.19;;;7.31;43.95
6020;BME280;3038;51.122;6.840;2023-04-04T18:18:12;102128.66;;;7.26;44.06
6020;BME280;3038;51.122;6.840;2023-04-04T18:20:37;102130.78;;;7.20;44.38
6020;BME280;3038;51.122;6.840;2023-04-04T18:23:03;102132.75;;;7.17;44.52
6020;BME280;3038;51.122;6.840;2023-04-04T18:25:29;102129.47;;;7.13;44.49
6020;BME280;3038;51.122;6.840;2023-04-04T18:27:55;102127.97;;;7.09;44.40
6020;BME280;3038;51.122;6.840;2023-04-04T18:30:21;102133.50;;;7.06;45.39
6020;BME280;3038;51.122;6.840;2023-04-04T18:32:46;102121.44;;;7.02;44.91
6020;BME280;3038;51.122;6.840;2023-04-04T18:35:12;102120.13;;;6.95;44.98
6020;BME280;3038;51.122;6.840;2023-04-04T18:37:39;102121.28;;;6.91;44.71
6020;BME280;3038;51.122;6.840;2023-04-04T18:40:06;102118.00;;;6.87;45.47
6020;BME280;3038;51.122;6.840;2023-04-04T18:42:33;102123.78;;;6.80;45.43
6020;BME280;3038;51.122;6.840;2023-04-04T18:44:58;102115.31;;;6.75;45.55
6020;BME280;3038;51.122;6.840;2023-04-04T18:47:24;102120.72;;;6.73;45.90
6020;BME280;3038;51.122;6.840;2023-04-04T18:49:51;102118.56;;;6.65;46.13
6020;BME280;3038;51.122;6.840;2023-04-04T18:52:16;102124.25;;;6.59;46.64
6020;BME280;3038;51.122;6.840;2023-04-04T18:54:42;102128.22;;;6.52;46.89
6020;BME280;3038;51.122;6.840;2023-04-04T18:57:09;102130.13;;;6.50;47.59
6020;BME280;3038;51.122;6.840;2023-04-04T18:59:34;102133.88;;;6.46;47.31
6020;BME280;3038;51.122;6.840;2023-04-04T19:02:00;102128.78;;;6.43;48.75
6020;BME280;3038;51.122;6.840;2023-04-04T19:04:27;102130.69;;;6.41;48.55
6020;BME280;3038;51.122;6.840;2023-04-04T19:06:53;102129.97;;;6.39;48.25
6020;BME280;3038;51.122;6.840;2023-04-04T19:09:19;102136.16;;;6.38;47.72
6020;BME280;3038;51.122;6.840;2023-04-04T19:11:45;102138.25;;;6.33;48.28
6020;BME280;3038;51.122;6.840;2023-04-04T19:14:11;102137.63;;;6.29;48.60
6020;BME280;3038;51.122;6.840;2023-04-04T19:16:40;102139.59;;;6.26;49.17
6020;BME280;3038;51.122;6.840;2023-04-04T19:19:06;102145.81;;;6.25;49.03
6020;BME280;3038;51.122;6.840;2023-04-04T19:21:31;102149.47;;;6.22;49.26
6020;BME280;3038;51.122;6.840;2023-04-04T19:23:59;102155.03;;;6.17;49.80
6020;BME280;3038;51.122;6.840;2023-04-04T19:26:24;102155.31;;;6.13;50.23
6020;BME280;3038;51.122;6.840;2023-04-04T19:28:52;102163.25;;;6.13;49.58
6020;BME280;3038;51.122;6.840;2023-04-04T19:31:22;102159.88;;;6.11;49.72
6020;BME280;3038;51.122;6.840;2023-04-04T19:33:51;102162.59;;;6.09;50.00
6020;BME280;3038;51.122;6.840;2023-04-04T19:36:20;102166.16;;;6.08;50.13
6020;BME280;3038;51.122;6.840;2023-04-04T19:38:46;102161.72;;;6.09;50.37
6020;BME280;3038;51.122;6.840;2023-04-04T19:43:44;102165.31;;;6.08;50.13
6020;BME280;3038;51.122;6.840;2023-04-04T19:46:12;102159.31;;;6.06;51.20
6020;BME280;3038;51.122;6.840;2023-04-04T19:48:43;102162.78;;;6.06;50.66
6020;BME280;3038;51.122;6.840;2023-04-04T19:53:51;102155.63;;;6.08;50.88
6020;BME280;3038;51.122;6.840;2023-04-04T19:56:18;102162.59;;;6.09;49.97
6020;BME280;3038;51.122;6.840;2023-04-04T19:58:45;102159.88;;;6.11;50.11
6020;BME280;3038;51.122;6.840;2023-04-04T20:01:20;102162.22;;;6.15;50.51
6020;BME280;3038;51.122;6.840;2023-04-04T20:03:47;102162.78;;;6.21;49.86
6020;BME280;3038;51.122;6.840;2023-04-04T20:06:26;102162.66;;;6.22;49.73
6020;BME280;3038;51.122;6.840;2023-04-04T20:08:54;102164.34;;;6.23;49.42
6020;BME280;3038;51.122;6.840;2023-04-04T20:11:30;102167.19;;;6.20;50.22
6020;BME280;3038;51.122;6.840;2023-04-04T20:13:57;102169.84;;;6.20;49.71
6020;BME280;3038;51.122;6.840;2023-04-04T20:16:23;102169.00;;;6.20;50.12
6020;BME280;3038;51.122;6.840;2023-04-04T20:18:52;102170.13;;;6.15;50.54
6020;BME280;3038;51.122;6.840;2023-04-04T20:21:22;102164.28;;;6.10;50.31